Time;durP1;ratioP1;P1;durP2;ratioP2;P2;SDS_P1;SDS_P2;PMS_P1;PMS_P2;Temp;Humidity;BMP_temperature;BMP_pressure;BME280_temperature;BME280_humidity;BME280_pressure;Samples;Min_cycle;Max_cycle;Signal;HPM_P1;HPM_P2
2023/06/09 00:02:22;;;;;;;4.72;2.90;;;;;;;;;;10576704;28;20429;-74
2023/06/09 00:07:27;;;;;;;5.20;2.58;;;;;;;;;;10587248;28;20117;-74
2023/06/09 00:12:30;;;;;;;7.18;3.30;;;;;;;;;;10568394;28;20040;-74
2023/06/09 00:17:33;;;;;;;4.95;3.10;;;;;;;;;;10564709;28;20060;-74
2023/06/09 00:22:42;;;;;;;3.40;1.70;;;;;;;;;;10588348;28;20039;-74
2023/06/09 00:27:46;;;;;;;5.97;3.25;;;;;;;;;;10563178;28;20052;-74
2023/06/09 00:32:49;;;;;;;5.18;2.70;;;;;;;;;;10573190;28;20104;-73
2023/06/09 00:37:52;;;;;;;9.57;3.10;;;;;;;;;;10570067;28;20144;-73
2023/06/09 00:42:56;;;;;;;5.75;3.05;;;;;;;;;;10560090;28;20142;-74
2023/06/09 00:47:58;;;;;;;6.25;3.08;;;;;;;;;;10568197;28;20044;-73
2023/06/09 00:53:01;;;;;;;6.43;3.40;;;;;;;;;;10559600;28;20028;-74
2023/06/09 00:58:06;;;;;;;6.40;2.95;;;;;;;;;;10567998;28;20100;-73
2023/06/09 01:03:10;;;;;;;6.82;3.15;;;;;;;;;;10551233;28;20104;-73
2023/06/09 01:08:16;;;;;;;5.40;3.30;;;;;;;;;;10574199;28;20047;-73
2023/06/09 01:13:24;;;;;;;6.38;3.33;;;;;;;;;;10545001;28;20047;-74
2023/06/09 01:18:30;;;;;;;7.50;3.53;;;;;;;;;;10566938;28;20074;-73
2023/06/09 01:23:38;;;;;;;6.82;3.15;;;;;;;;;;10555241;28;20116;-73
2023/06/09 01:28:43;;;;;;;5.57;3.20;;;;;;;;;;10565339;28;20036;-73
2023/06/09 01:33:46;;;;;;;7.75;3.38;;;;;;;;;;10572983;28;20036;-73
2023/06/09 01:38:48;;;;;;;5.33;3.03;;;;;;;;;;10581884;28;20043;-73
2023/06/09 01:43:52;;;;;;;8.13;3.60;;;;;;;;;;10566044;28;20060;-73
2023/06/09 01:49:00;;;;;;;6.75;3.35;;;;;;;;;;10587744;28;20067;-73
2023/06/09 01:54:05;;;;;;;9.90;3.38;;;;;;;;;;10578423;28;20142;-74
2023/06/09 01:59:12;;;;;;;5.70;3.08;;;;;;;;;;10583902;28;20139;-74
2023/06/09 02:04:15;;;;;;;5.50;3.03;;;;;;;;;;10563146;28;20036;-73
2023/06/09 02:09:18;;;;;;;7.75;3.63;;;;;;;;;;10582629;28;20062;-73
2023/06/09 02:14:22;;;;;;;6.73;3.10;;;;;;;;;;10552139;28;20075;-74
2023/06/09 02:19:25;;;;;;;6.55;3.20;;;;;;;;;;10574000;28;20047;-75
2023/06/09 02:24:28;;;;;;;7.32;3.10;;;;;;;;;;10573003;28;20077;-73
2023/06/09 02:29:32;;;;;;;6.97;3.38;;;;;;;;;;10561035;28;20039;-75
2023/06/09 02:34:35;;;;;;;7.00;3.13;;;;;;;;;;10582216;28;20036;-73
2023/06/09 02:39:37;;;;;;;7.13;3.60;;;;;;;;;;10573757;28;20055;-73
2023/06/09 02:44:41;;;;;;;5.63;3.22;;;;;;;;;;10573417;28;20060;-74
2023/06/09 02:49:44;;;;;;;7.05;3.67;;;;;;;;;;10571609;28;20048;-76
2023/06/09 02:54:47;;;;;;;7.28;3.42;;;;;;;;;;10573580;28;20096;-74
2023/06/09 02:59:51;;;;;;;6.37;3.37;;;;;;;;;;10575257;28;20373;-74
2023/06/09 03:04:54;;;;;;;6.50;3.28;;;;;;;;;;10586048;28;20298;-74
2023/06/09 03:09:56;;;;;;;7.27;3.87;;;;;;;;;;10562386;28;20079;-74
2023/06/09 03:15:00;;;;;;;9.03;3.77;;;;;;;;;;10570687;28;20060;-74
2023/06/09 03:20:06;;;;;;;7.00;3.03;;;;;;;;;;10571051;28;20039;-74
2023/06/09 03:25:10;;;;;;;6.47;3.58;;;;;;;;;;10580197;28;20382;-73
2023/06/09 03:30:12;;;;;;;;;;;;;;;;;;10572477;28;20058;-73
2023/06/09 03:35:17;;;;;;;6.60;3.53;;;;;;;;;;10572377;28;19920;-75
2023/06/09 03:40:20;;;;;;;9.82;3.13;;;;;;;;;;10570692;28;20040;-74
2023/06/09 03:45:23;;;;;;;7.60;2.87;;;;;;;;;;10577927;28;20042;-74
2023/06/09 03:50:27;;;;;;;7.38;3.65;;;;;;;;;;10577623;28;20055;-74
2023/06/09 03:55:31;;;;;;;7.68;3.47;;;;;;;;;;10569191;28;20050;-74
2023/06/09 04:00:34;;;;;;;;;;;;;;;;;;10576123;28;20523;-75
2023/06/09 04:05:38;;;;;;;7.55;2.97;;;;;;;;;;10569353;28;19931;-75
2023/06/09 04:10:42;;;;;;;6.85;3.15;;;;;;;;;;10559025;28;20048;-75
2023/06/09 04:15:45;;;;;;;5.28;2.67;;;;;;;;;;10559230;28;20064;-74
2023/06/09 04:20:49;;;;;;;6.50;2.95;;;;;;;;;;10558127;28;20067;-74
2023/06/09 04:25:53;;;;;;;7.70;3.28;;;;;;;;;;10571765;28;20043;-75
2023/06/09 04:30:57;;;;;;;6.78;2.97;;;;;;;;;;10564567;28;20036;-75
2023/06/09 04:36:03;;;;;;;8.48;3.50;;;;;;;;;;10582850;28;20276;-75
2023/06/09 04:41:06;;;;;;;6.38;3.20;;;;;;;;;;10582129;28;20286;-75
2023/06/09 04:46:09;;;;;;;7.90;3.63;;;;;;;;;;10590086;28;20231;-75
2023/06/09 04:51:16;;;;;;;7.83;3.57;;;;;;;;;;10578699;28;20085;-74
2023/06/09 04:56:20;;;;;;;10.32;4.07;;;;;;;;;;10602064;28;20040;-74
2023/06/09 05:01:23;;;;;;;;;;;;;;;;;;10592804;28;20103;-74
2023/06/09 05:06:27;;;;;;;8.88;3.53;;;;;;;;;;10601604;28;19927;-75
2023/06/09 05:11:30;;;;;;;6.13;3.25;;;;;;;;;;10578472;28;20060;-74
2023/06/09 05:16:34;;;;;;;7.67;3.70;;;;;;;;;;10577557;28;20546;-74
2023/06/09 05:21:39;;;;;;;8.10;3.85;;;;;;;;;;10568867;28;20039;-74
2023/06/09 05:26:42;;;;;;;9.10;3.72;;;;;;;;;;10586894;28;20122;-76
2023/06/09 05:31:45;;;;;;;8.45;4.53;;;;;;;;;;10580465;28;20099;-75
2023/06/09 05:36:49;;;;;;;10.48;3.97;;;;;;;;;;10584447;28;20050;-75
2023/06/09 05:41:52;;;;;;;6.88;3.67;;;;;;;;;;10583062;28;20074;-74
2023/06/09 05:46:55;;;;;;;7.63;4.20;;;;;;;;;;10575426;28;20102;-74
2023/06/09 05:52:00;;;;;;;8.52;4.10;;;;;;;;;;10574476;28;20118;-75
2023/06/09 05:57:03;;;;;;;4.90;2.45;;;;;;;;;;10587857;28;20047;-75
2023/06/09 06:02:06;;;;;;;;;;;;;;;;;;10574972;28;20074;-74
2023/06/09 06:07:11;;;;;;;9.05;4.07;;;;;;;;;;10588949;28;19967;-74
2023/06/09 06:12:14;;;;;;;6.13;2.88;;;;;;;;;;10589126;28;20043;-74
2023/06/09 06:17:17;;;;;;;4.38;2.13;;;;;;;;;;10601152;28;20035;-74
2023/06/09 06:22:22;;;;;;;3.30;2.05;;;;;;;;;;10597601;28;20100;-74
2023/06/09 06:27:25;;;;;;;8.38;4.10;;;;;;;;;;10578372;28;20078;-74
2023/06/09 06:32:28;;;;;;;6.93;3.53;;;;;;;;;;10584715;28;20039;-74
2023/06/09 06:37:33;;;;;;;7.17;3.83;;;;;;;;;;10578513;28;20055;-74
2023/06/09 06:42:36;;;;;;;5.82;2.88;;;;;;;;;;10582020;28;20293;-74
2023/06/09 06:47:40;;;;;;;5.70;3.25;;;;;;;;;;10597175;28;20131;-74
2023/06/09 06:52:45;;;;;;;6.25;3.10;;;;;;;;;;10572484;28;20040;-74
2023/06/09 06:57:48;;;;;;;7.18;2.67;;;;;;;;;;10597649;28;20111;-74
2023/06/09 07:02:51;;;;;;;6.00;2.80;;;;;;;;;;10602563;28;20059;-74
2023/06/09 07:07:56;;;;;;;6.47;2.95;;;;;;;;;;10589045;28;20047;-74
2023/06/09 07:12:59;;;;;;;4.35;2.45;;;;;;;;;;10582662;28;20035;-75
2023/06/09 07:18:03;;;;;;;5.75;2.20;;;;;;;;;;10592978;28;20067;-74
2023/06/09 07:23:07;;;;;;;3.92;2.22;;;;;;;;;;10585129;28;20047;-74
2023/06/09 07:28:10;;;;;;;6.55;3.22;;;;;;;;;;10562315;28;20108;-75
2023/06/09 07:33:16;;;;;;;5.25;2.95;;;;;;;;;;10575798;28;20044;-74
2023/06/09 07:38:20;;;;;;;6.88;3.00;;;;;;;;;;10563234;28;20074;-75
2023/06/09 07:43:24;;;;;;;4.68;2.72;;;;;;;;;;10568888;28;20043;-73
2023/06/09 07:48:27;;;;;;;;;;;;;;;;;;10579537;28;20044;-75
2023/06/09 07:53:31;;;;;;;5.87;3.00;;;;;;;;;;10600498;28;19927;-74
2023/06/09 07:58:33;;;;;;;4.60;2.97;;;;;;;;;;10573562;28;20075;-76
2023/06/09 08:03:37;;;;;;;4.20;2.90;;;;;;;;;;10595670;28;20073;-75
2023/06/09 08:08:42;;;;;;;4.88;3.00;;;;;;;;;;10594073;28;20043;-75
2023/06/09 08:13:44;;;;;;;6.03;3.42;;;;;;;;;;10596442;28;20122;-75
2023/06/09 08:18:47;;;;;;;3.72;2.97;;;;;;;;;;10577007;28;20040;-76
2023/06/09 08:23:52;;;;;;;5.30;3.00;;;;;;;;;;10571606;28;20044;-74
2023/06/09 08:28:55;;;;;;;3.95;2.63;;;;;;;;;;10575452;28;20047;-75
2023/06/09 08:33:58;;;;;;;3.78;3.10;;;;;;;;;;10571397;28;20044;-76
2023/06/09 08:39:02;;;;;;;5.85;3.10;;;;;;;;;;10584486;28;20042;-76
2023/06/09 08:44:05;;;;;;;4.13;3.40;;;;;;;;;;10577351;28;20038;-75
2023/06/09 08:49:08;;;;;;;6.72;3.40;;;;;;;;;;10579048;28;20089;-76
2023/06/09 08:54:13;;;;;;;5.65;3.70;;;;;;;;;;10596407;28;20063;-75
2023/06/09 08:59:16;;;;;;;4.40;4.00;;;;;;;;;;10579983;28;20074;-76
2023/06/09 09:04:19;;;;;;;5.40;3.92;;;;;;;;;;10586406;28;20032;-76
2023/06/09 09:09:23;;;;;;;5.60;4.57;;;;;;;;;;10586817;28;20129;-76
2023/06/09 09:14:26;;;;;;;4.38;3.92;;;;;;;;;;10588012;28;20043;-76
2023/06/09 09:19:29;;;;;;;5.07;4.05;;;;;;;;;;10599592;28;20051;-76
2023/06/09 09:24:34;;;;;;;5.82;5.05;;;;;;;;;;10585668;28;20054;-76
2023/06/09 09:29:40;;;;;;;5.15;4.70;;;;;;;;;;10573589;28;20074;-75
2023/06/09 09:34:44;;;;;;;5.75;4.88;;;;;;;;;;10584931;28;20043;-76
2023/06/09 09:39:51;;;;;;;5.68;5.10;;;;;;;;;;10580977;28;20078;-77
2023/06/09 09:44:54;;;;;;;4.20;3.80;;;;;;;;;;10574176;28;20066;-76
2023/06/09 09:49:58;;;;;;;5.63;4.60;;;;;;;;;;10579297;28;20054;-76
2023/06/09 09:55:04;;;;;;;4.38;3.90;;;;;;;;;;10579957;28;20031;-76
2023/06/09 10:00:11;;;;;;;4.20;3.80;;;;;;;;;;10597309;28;20052;-76
2023/06/09 10:05:16;;;;;;;4.05;3.70;;;;;;;;;;10558026;28;20082;-76
2023/06/09 10:10:20;;;;;;;4.35;3.33;;;;;;;;;;10608403;28;20043;-76
2023/06/09 10:15:23;;;;;;;6.88;4.35;;;;;;;;;;10589079;28;20262;-75
2023/06/09 10:20:26;;;;;;;4.00;3.63;;;;;;;;;;10601000;28;20074;-75
2023/06/09 10:25:30;;;;;;;4.68;4.07;;;;;;;;;;10582623;28;20035;-75
2023/06/09 10:30:33;;;;;;;3.47;3.17;;;;;;;;;;10565122;28;20036;-76
2023/06/09 10:35:37;;;;;;;4.35;3.95;;;;;;;;;;10574678;28;20036;-76
2023/06/09 10:40:46;;;;;;;4.38;3.97;;;;;;;;;;10566344;28;20044;-75
2023/06/09 10:45:50;;;;;;;4.80;4.40;;;;;;;;;;10567095;28;20036;-75
2023/06/09 10:50:53;;;;;;;4.93;3.75;;;;;;;;;;10587769;28;20112;-75
2023/06/09 10:56:10;;;;;;;4.70;4.22;;;;;;;;;;10588780;28;20044;-75
2023/06/09 11:01:15;;;;;;;4.53;4.00;;;;;;;;;;10587070;28;20122;-74
2023/06/09 11:06:17;;;;;;;6.47;3.58;;;;;;;;;;10592469;28;20056;-77
2023/06/09 11:11:40;;;;;;;4.53;3.83;;;;;;;;;;10582682;28;20361;-74
2023/06/09 11:16:57;;;;;;;6.65;3.85;;;;;;;;;;10597300;28;20057;-75
2023/06/09 11:22:05;;;;;;;4.22;3.83;;;;;;;;;;10567491;28;20084;-74
2023/06/09 11:27:17;;;;;;;4.28;3.88;;;;;;;;;;10564105;28;20100;-74
2023/06/09 11:32:20;;;;;;;4.35;3.33;;;;;;;;;;10590050;28;20047;-74
2023/06/09 11:37:24;;;;;;;3.40;3.10;;;;;;;;;;10591261;28;20047;-74
2023/06/09 11:42:27;;;;;;;7.53;3.20;;;;;;;;;;10560587;28;20283;-75
2023/06/09 11:47:30;;;;;;;6.15;3.75;;;;;;;;;;10587194;28;20032;-75
2023/06/09 11:52:35;;;;;;;7.68;4.63;;;;;;;;;;10588289;28;20101;-75
2023/06/09 11:57:39;;;;;;;4.25;3.75;;;;;;;;;;10577207;28;20040;-74
2023/06/09 12:02:42;;;;;;;7.75;3.90;;;;;;;;;;10569606;28;20064;-74
2023/06/09 12:07:47;;;;;;;5.45;3.63;;;;;;;;;;10586142;28;20044;-75
2023/06/09 12:12:51;;;;;;;8.02;3.60;;;;;;;;;;10579042;28;20039;-74
2023/06/09 12:17:54;;;;;;;7.45;3.78;;;;;;;;;;10577657;28;20043;-74
2023/06/09 12:22:59;;;;;;;4.60;3.65;;;;;;;;;;10578050;28;20131;-74
2023/06/09 12:28:13;;;;;;;4.35;3.50;;;;;;;;;;10573211;28;20070;-74
2023/06/09 12:33:17;;;;;;;4.03;3.28;;;;;;;;;;10576893;28;20094;-75
2023/06/09 12:38:22;;;;;;;4.68;3.30;;;;;;;;;;10580330;28;20101;-74
2023/06/09 12:43:26;;;;;;;5.00;3.22;;;;;;;;;;10571215;28;20056;-76
2023/06/09 12:48:29;;;;;;;3.90;2.97;;;;;;;;;;10583298;28;20370;-75
2023/06/09 12:53:33;;;;;;;4.68;3.47;;;;;;;;;;10581104;28;20101;-75
2023/06/09 12:58:36;;;;;;;6.72;4.03;;;;;;;;;;10600231;28;20046;-73
2023/06/09 13:03:38;;;;;;;8.38;4.38;;;;;;;;;;10576617;28;20057;-74
2023/06/09 13:08:43;;;;;;;4.78;3.70;;;;;;;;;;10575520;28;20039;-74
2023/06/09 13:13:46;;;;;;;4.40;3.10;;;;;;;;;;10576873;28;20074;-74
2023/06/09 13:18:49;;;;;;;4.90;2.97;;;;;;;;;;10579501;28;20050;-74
2023/06/09 13:23:54;;;;;;;4.72;3.30;;;;;;;;;;10584102;28;20082;-74
2023/06/09 13:28:57;;;;;;;5.28;3.20;;;;;;;;;;10589594;28;20210;-73
2023/06/09 13:33:59;;;;;;;3.90;2.95;;;;;;;;;;10580675;28;20059;-73
2023/06/09 13:39:03;;;;;;;7.15;3.20;;;;;;;;;;10580723;28;20126;-75
2023/06/09 13:44:07;;;;;;;5.68;3.40;;;;;;;;;;10582384;28;20067;-74
2023/06/09 13:49:10;;;;;;;5.70;3.33;;;;;;;;;;10559045;28;20036;-74
2023/06/09 13:54:15;;;;;;;4.95;3.20;;;;;;;;;;10581284;28;20070;-74
2023/06/09 13:59:17;;;;;;;5.18;3.17;;;;;;;;;;10596176;28;20063;-74
2023/06/09 14:04:20;;;;;;;3.80;2.80;;;;;;;;;;10589076;28;20071;-74
2023/06/09 14:09:24;;;;;;;4.18;3.10;;;;;;;;;;10584780;28;20078;-74
2023/06/09 14:14:27;;;;;;;4.63;3.20;;;;;;;;;;10582638;28;20044;-73
2023/06/09 14:19:30;;;;;;;4.43;3.30;;;;;;;;;;10585588;28;20082;-73
2023/06/09 14:24:34;;;;;;;5.65;3.38;;;;;;;;;;10581254;28;20096;-74
2023/06/09 14:29:37;;;;;;;6.50;3.53;;;;;;;;;;10586249;28;20035;-73
2023/06/09 14:34:40;;;;;;;4.97;3.22;;;;;;;;;;10588545;28;20047;-74
2023/06/09 14:39:44;;;;;;;4.47;3.08;;;;;;;;;;10562381;28;20043;-75
2023/06/09 14:44:47;;;;;;;5.03;3.30;;;;;;;;;;10592197;28;20044;-74
2023/06/09 14:49:50;;;;;;;5.45;3.33;;;;;;;;;;10590089;28;20101;-75
2023/06/09 14:54:55;;;;;;;5.80;3.20;;;;;;;;;;10572873;28;20039;-75
2023/06/09 14:59:57;;;;;;;6.80;3.47;;;;;;;;;;10593688;28;20040;-75
2023/06/09 15:05:00;;;;;;;4.85;3.30;;;;;;;;;;10571889;28;20048;-74
2023/06/09 15:10:05;;;;;;;5.22;3.22;;;;;;;;;;10566160;28;20040;-73
2023/06/09 15:15:08;;;;;;;5.53;3.45;;;;;;;;;;10576978;28;20051;-74
2023/06/09 15:20:12;;;;;;;6.03;3.40;;;;;;;;;;10578040;28;20082;-74
2023/06/09 15:25:17;;;;;;;4.68;3.20;;;;;;;;;;10580184;28;20087;-73
2023/06/09 15:30:19;;;;;;;6.55;3.20;;;;;;;;;;10583247;28;20106;-74
2023/06/09 15:35:22;;;;;;;4.28;2.97;;;;;;;;;;10588704;28;20092;-73
2023/06/09 15:40:27;;;;;;;4.57;2.97;;;;;;;;;;10589675;28;20126;-74
2023/06/09 15:45:30;;;;;;;5.82;3.38;;;;;;;;;;10577861;28;20092;-74
2023/06/09 15:50:32;;;;;;;7.82;3.20;;;;;;;;;;10585157;28;20044;-74
2023/06/09 15:55:36;;;;;;;5.28;3.60;;;;;;;;;;10586925;28;20527;-74
2023/06/09 16:00:39;;;;;;;6.25;3.70;;;;;;;;;;10584388;28;20043;-74
2023/06/09 16:05:43;;;;;;;5.65;3.50;;;;;;;;;;10594867;28;20031;-75
2023/06/09 16:10:50;;;;;;;6.43;3.80;;;;;;;;;;10570558;28;20036;-75
2023/06/09 16:15:52;;;;;;;7.18;3.70;;;;;;;;;;10578471;28;20051;-74
2023/06/09 16:20:55;;;;;;;5.15;3.63;;;;;;;;;;10556257;28;20047;-75
2023/06/09 16:26:00;;;;;;;6.80;3.60;;;;;;;;;;10586102;28;20067;-75
2023/06/09 16:31:02;;;;;;;5.07;3.42;;;;;;;;;;10568563;28;20123;-75
2023/06/09 16:36:05;;;;;;;6.45;3.70;;;;;;;;;;10588543;28;20264;-75
2023/06/09 16:41:10;;;;;;;5.05;3.20;;;;;;;;;;10569528;28;20036;-75
2023/06/09 16:46:13;;;;;;;5.90;3.67;;;;;;;;;;10579224;28;20076;-74
2023/06/09 16:51:16;;;;;;;;;;;;;;;;;;10566206;28;20054;-75
2023/06/09 16:56:20;;;;;;;5.97;3.78;;;;;;;;;;10576588;28;19941;-73
2023/06/09 17:01:23;;;;;;;5.82;3.70;;;;;;;;;;10582157;28;20118;-74
2023/06/09 17:06:26;;;;;;;;;;;;;;;;;;10584414;28;20028;-75
2023/06/09 17:11:30;;;;;;;9.67;4.23;;;;;;;;;;10569499;28;19920;-75
2023/06/09 17:16:32;;;;;;;6.28;4.05;;;;;;;;;;10576361;28;20096;-74
2023/06/09 17:21:35;;;;;;;4.72;3.72;;;;;;;;;;10583310;28;20047;-75
2023/06/09 17:26:39;;;;;;;5.55;3.88;;;;;;;;;;10587458;28;20036;-74
2023/06/09 17:31:42;;;;;;;8.85;3.75;;;;;;;;;;10576414;28;20572;-75
2023/06/09 17:36:45;;;;;;;7.45;3.88;;;;;;;;;;10584188;28;20032;-74
2023/06/09 17:41:47;;;;;;;;;;;;;;;;;;10591127;28;20044;-75
2023/06/09 17:46:51;;;;;;;5.70;3.67;;;;;;;;;;10580385;28;20386;-74
2023/06/09 17:51:54;;;;;;;5.40;3.53;;;;;;;;;;10560464;28;20436;-75
2023/06/09 17:56:57;;;;;;;5.85;4.03;;;;;;;;;;10585411;28;20036;-75
2023/06/09 18:02:01;;;;;;;6.32;3.83;;;;;;;;;;10581816;28;20075;-74
2023/06/09 18:07:04;;;;;;;9.30;3.83;;;;;;;;;;10566495;28;20040;-75
2023/06/09 18:12:08;;;;;;;5.95;3.75;;;;;;;;;;10564849;28;20161;-74
2023/06/09 18:17:12;;;;;;;5.80;3.83;;;;;;;;;;10575001;28;20420;-75
2023/06/09 18:22:15;;;;;;;14.38;4.10;;;;;;;;;;10596309;28;20044;-75
2023/06/09 18:27:18;;;;;;;6.78;3.97;;;;;;;;;;10592889;28;20040;-74
2023/06/09 18:32:22;;;;;;;6.10;3.78;;;;;;;;;;10584540;28;21611;-76
2023/06/09 18:37:24;;;;;;;8.23;3.80;;;;;;;;;;10594401;28;20085;-75
2023/06/09 18:42:27;;;;;;;6.30;3.95;;;;;;;;;;10577168;28;20043;-76
2023/06/09 18:47:31;;;;;;;7.65;4.03;;;;;;;;;;10580926;28;20036;-75
2023/06/09 18:52:36;;;;;;;7.15;3.85;;;;;;;;;;10583251;28;20062;-75
2023/06/09 18:57:39;;;;;;;6.88;4.15;;;;;;;;;;10581356;28;20076;-75
2023/06/09 19:02:44;;;;;;;6.70;3.95;;;;;;;;;;10563280;28;20067;-75
2023/06/09 19:07:47;;;;;;;6.63;4.00;;;;;;;;;;10563626;28;20036;-74
2023/06/09 19:12:49;;;;;;;8.13;4.53;;;;;;;;;;10562597;28;20112;-74
2023/06/09 19:17:57;;;;;;;10.90;4.88;;;;;;;;;;10590136;28;20186;-76
2023/06/09 19:23:00;;;;;;;8.23;4.55;;;;;;;;;;10578970;28;20040;-75
2023/06/09 19:28:04;;;;;;;;;;;;;;;;;;10554330;28;20028;-74
2023/06/09 19:33:08;;;;;;;9.73;4.63;;;;;;;;;;10562660;28;20015;-75
2023/06/09 19:38:11;;;;;;;6.97;4.40;;;;;;;;;;10571532;28;20440;-76
2023/06/09 19:43:14;;;;;;;9.48;5.38;;;;;;;;;;10569569;28;20044;-75
2023/06/09 19:48:18;;;;;;;9.05;5.25;;;;;;;;;;10570998;28;20047;-75
2023/06/09 19:53:21;;;;;;;8.27;4.63;;;;;;;;;;10570140;28;20036;-75
2023/06/09 19:58:24;;;;;;;9.30;5.10;;;;;;;;;;10564683;28;20074;-76
2023/06/09 20:03:28;;;;;;;8.63;5.07;;;;;;;;;;10565277;28;20047;-76
2023/06/09 20:08:30;;;;;;;10.40;5.40;;;;;;;;;;10584297;28;20304;-74
2023/06/09 20:13:33;;;;;;;10.77;5.80;;;;;;;;;;10565959;28;20166;-75
2023/06/09 20:18:37;;;;;;;13.90;7.43;;;;;;;;;;10560838;28;20305;-75
2023/06/09 20:23:41;;;;;;;25.33;11.27;;;;;;;;;;10565705;28;20093;-74
2023/06/09 20:28:44;;;;;;;11.43;6.75;;;;;;;;;;10571982;28;20059;-75
2023/06/09 20:33:50;;;;;;;9.57;5.80;;;;;;;;;;10573360;28;20054;-75
2023/06/09 20:38:53;;;;;;;26.67;13.90;;;;;;;;;;10580769;28;20047;-76
2023/06/09 20:43:56;;;;;;;8.40;6.00;;;;;;;;;;10560700;28;20032;-75
2023/06/09 20:49:00;;;;;;;10.13;6.20;;;;;;;;;;10567029;28;20039;-76
2023/06/09 20:54:02;;;;;;;10.68;5.88;;;;;;;;;;10560099;28;20301;-75
2023/06/09 20:59:05;;;;;;;12.57;7.43;;;;;;;;;;10569706;28;20071;-75
2023/06/09 21:04:09;;;;;;;10.17;6.27;;;;;;;;;;10576637;28;20040;-75
2023/06/09 21:09:13;;;;;;;11.38;6.40;;;;;;;;;;10583459;28;20043;-77
2023/06/09 21:14:16;;;;;;;11.85;5.90;;;;;;;;;;10567374;28;20076;-76
2023/06/09 21:19:20;;;;;;;11.55;6.03;;;;;;;;;;10592892;28;20043;-75
2023/06/09 21:24:23;;;;;;;9.68;5.55;;;;;;;;;;10561200;28;20054;-76
2023/06/09 21:29:25;;;;;;;11.23;6.03;;;;;;;;;;10564802;28;20505;-75
2023/06/09 21:34:29;;;;;;;8.53;5.17;;;;;;;;;;10577032;28;20035;-76
2023/06/09 21:39:32;;;;;;;9.20;5.35;;;;;;;;;;10570207;28;20138;-76
2023/06/09 21:44:35;;;;;;;10.60;5.80;;;;;;;;;;10558172;28;20032;-76
2023/06/09 21:49:39;;;;;;;9.33;5.83;;;;;;;;;;10576376;28;20289;-77
2023/06/09 21:54:41;;;;;;;9.95;6.15;;;;;;;;;;10565564;28;20070;-76
2023/06/09 21:59:44;;;;;;;11.00;5.73;;;;;;;;;;10578850;28;20591;-76
2023/06/09 22:04:48;;;;;;;10.25;6.00;;;;;;;;;;10578425;28;20044;-75
2023/06/09 22:09:51;;;;;;;9.50;5.30;;;;;;;;;;10566063;28;20044;-74
2023/06/09 22:14:53;;;;;;;10.77;5.10;;;;;;;;;;10593362;28;20159;-76
2023/06/09 22:19:57;;;;;;;9.10;5.13;;;;;;;;;;10581656;28;20146;-74
2023/06/09 22:25:00;;;;;;;10.20;4.88;;;;;;;;;;10576406;28;20040;-74
2023/06/09 22:30:04;;;;;;;8.55;4.97;;;;;;;;;;10546121;28;20042;-75
2023/06/09 22:35:08;;;;;;;8.35;4.95;;;;;;;;;;10590378;28;20043;-75
2023/06/09 22:40:12;;;;;;;7.75;4.95;;;;;;;;;;10569508;28;20043;-74
2023/06/09 22:45:15;;;;;;;8.02;4.65;;;;;;;;;;10565904;28;20044;-76
2023/06/09 22:50:19;;;;;;;10.82;5.28;;;;;;;;;;10556583;28;20081;-75
2023/06/09 22:55:22;;;;;;;8.63;5.05;;;;;;;;;;10556425;28;20107;-75
2023/06/09 23:00:24;;;;;;;7.83;4.70;;;;;;;;;;10587346;28;20044;-74
2023/06/09 23:05:50;;;;;;;9.77;4.70;;;;;;;;;;10572993;28;20044;-74
2023/06/09 23:10:53;;;;;;;8.70;5.07;;;;;;;;;;10562624;28;20085;-73
2023/06/09 23:15:56;;;;;;;6.97;4.50;;;;;;;;;;10563257;28;20042;-75
2023/06/09 23:21:01;;;;;;;7.07;4.18;;;;;;;;;;10571427;28;20032;-75
2023/06/09 23:26:05;;;;;;;7.85;3.90;;;;;;;;;;10563964;28;20348;-74
2023/06/09 23:31:09;;;;;;;6.47;3.65;;;;;;;;;;10567659;28;20040;-74
2023/06/09 23:36:13;;;;;;;7.38;3.78;;;;;;;;;;10571533;28;20074;-75
2023/06/09 23:41:16;;;;;;;8.63;3.40;;;;;;;;;;10570233;28;20127;-76
2023/06/09 23:46:19;;;;;;;6.68;3.90;;;;;;;;;;10562616;28;20321;-74
2023/06/09 23:51:23;;;;;;;8.32;4.15;;;;;;;;;;10598914;28;20520;-74
2023/06/09 23:56:26;;;;;;;6.82;3.47;;;;;;;;;;10572049;28;20071;-75
